sensor_id;sensor_type;location;lat;lon;timestamp;P1;durP1;ratioP1;P2;durP2;ratioP2
18879;SDS011;9572;52.378;13.404;2023-03-01T00:00:53;24.27;;;13.00;;
18879;SDS011;9572;52.378;13.404;2023-03-01T00:03:20;25.23;;;13.20;;
18879;SDS011;9572;52.378;13.404;2023-03-01T00:05:47;29.93;;;14.20;;
18879;SDS011;9572;52.378;13.404;2023-03-01T00:08:16;26.93;;;14.53;;
18879;SDS011;9572;52.378;13.404;2023-03-01T00:10:42;27.80;;;14.27;;
18879;SDS011;9572;52.378;13.404;2023-03-01T00:13:09;27.53;;;13.10;;
18879;SDS011;9572;52.378;13.404;2023-03-01T00:15:38;26.87;;;13.70;;
18879;SDS011;9572;52.378;13.404;2023-03-01T00:18:06;32.47;;;14.47;;
18879;SDS011;9572;52.378;13.404;2023-03-01T00:20:33;26.43;;;13.47;;
18879;SDS011;9572;52.378;13.404;2023-03-01T00:23:00;28.07;;;13.90;;
18879;SDS011;9572;52.378;13.404;2023-03-01T00:25:29;29.97;;;15.07;;
18879;SDS011;9572;52.378;13.404;2023-03-01T00:27:56;28.50;;;13.80;;
18879;SDS011;9572;52.378;13.404;2023-03-01T00:30:22;23.00;;;12.13;;
18879;SDS011;9572;52.378;13.404;2023-03-01T00:32:49;29.73;;;13.70;;
18879;SDS011;9572;52.378;13.404;2023-03-01T00:35:16;33.00;;;14.30;;
18879;SDS011;9572;52.378;13.404;2023-03-01T00:37:43;30.80;;;14.43;;
18879;SDS011;9572;52.378;13.404;2023-03-01T00:40:11;26.53;;;13.60;;
18879;SDS011;9572;52.378;13.404;2023-03-01T00:42:42;30.93;;;15.00;;
18879;SDS011;9572;52.378;13.404;2023-03-01T00:45:09;27.50;;;12.77;;
18879;SDS011;9572;52.378;13.404;2023-03-01T00:47:38;27.13;;;14.10;;
18879;SDS011;9572;52.378;13.404;2023-03-01T00:50:05;24.10;;;13.10;;
18879;SDS011;9572;52.378;13.404;2023-03-01T00:52:33;27.00;;;13.40;;
18879;SDS011;9572;52.378;13.404;2023-03-01T00:54:59;32.13;;;14.43;;
18879;SDS011;9572;52.378;13.404;2023-03-01T00:57:26;28.17;;;14.17;;
18879;SDS011;9572;52.378;13.404;2023-03-01T00:59:55;30.80;;;14.27;;
18879;SDS011;9572;52.378;13.404;2023-03-01T01:02:21;28.03;;;14.00;;
18879;SDS011;9572;52.378;13.404;2023-03-01T01:04:48;30.93;;;13.47;;
18879;SDS011;9572;52.378;13.404;2023-03-01T01:07:15;24.93;;;13.37;;
18879;SDS011;9572;52.378;13.404;2023-03-01T01:09:42;28.70;;;13.43;;
18879;SDS011;9572;52.378;13.404;2023-03-01T01:12:09;28.90;;;13.70;;
18879;SDS011;9572;52.378;13.404;2023-03-01T01:14:36;27.47;;;13.37;;
18879;SDS011;9572;52.378;13.404;2023-03-01T01:17:04;32.17;;;14.40;;
18879;SDS011;9572;52.378;13.404;2023-03-01T01:19:31;33.33;;;14.13;;
18879;SDS011;9572;52.378;13.404;2023-03-01T01:21:58;28.93;;;13.27;;
18879;SDS011;9572;52.378;13.404;2023-03-01T01:24:25;26.20;;;12.97;;
18879;SDS011;9572;52.378;13.404;2023-03-01T01:26:52;29.87;;;13.87;;
18879;SDS011;9572;52.378;13.404;2023-03-01T01:29:19;27.80;;;14.30;;
18879;SDS011;9572;52.378;13.404;2023-03-01T01:31:46;30.30;;;14.30;;
18879;SDS011;9572;52.378;13.404;2023-03-01T01:34:15;28.23;;;13.20;;
18879;SDS011;9572;52.378;13.404;2023-03-01T01:36:47;27.10;;;12.93;;
18879;SDS011;9572;52.378;13.404;2023-03-01T01:39:14;32.90;;;14.17;;
18879;SDS011;9572;52.378;13.404;2023-03-01T01:41:41;28.67;;;14.17;;
18879;SDS011;9572;52.378;13.404;2023-03-01T01:44:13;36.53;;;16.00;;
18879;SDS011;9572;52.378;13.404;2023-03-01T01:46:43;29.73;;;14.13;;
18879;SDS011;9572;52.378;13.404;2023-03-01T01:49:18;31.27;;;14.20;;
18879;SDS011;9572;52.378;13.404;2023-03-01T01:51:51;26.40;;;13.03;;
18879;SDS011;9572;52.378;13.404;2023-03-01T01:54:23;27.53;;;12.43;;
18879;SDS011;9572;52.378;13.404;2023-03-01T01:56:55;24.07;;;11.77;;
18879;SDS011;9572;52.378;13.404;2023-03-01T01:59:25;23.93;;;12.30;;
18879;SDS011;9572;52.378;13.404;2023-03-01T02:01:54;24.53;;;10.93;;
18879;SDS011;9572;52.378;13.404;2023-03-01T02:04:23;27.90;;;10.23;;
18879;SDS011;9572;52.378;13.404;2023-03-01T02:06:51;20.47;;;10.57;;
18879;SDS011;9572;52.378;13.404;2023-03-01T02:09:23;22.27;;;10.63;;
18879;SDS011;9572;52.378;13.404;2023-03-01T02:11:50;24.30;;;10.60;;
18879;SDS011;9572;52.378;13.404;2023-03-01T02:14:18;19.63;;;10.57;;
18879;SDS011;9572;52.378;13.404;2023-03-01T02:16:45;21.93;;;10.30;;
18879;SDS011;9572;52.378;13.404;2023-03-01T02:19:13;19.00;;;10.13;;
18879;SDS011;9572;52.378;13.404;2023-03-01T02:21:48;19.73;;;10.60;;
18879;SDS011;9572;52.378;13.404;2023-03-01T02:24:25;18.07;;;9.63;;
18879;SDS011;9572;52.378;13.404;2023-03-01T02:26:59;18.70;;;9.83;;
18879;SDS011;9572;52.378;13.404;2023-03-01T02:29:28;20.23;;;10.30;;
18879;SDS011;9572;52.378;13.404;2023-03-01T02:31:56;19.73;;;10.37;;
18879;SDS011;9572;52.378;13.404;2023-03-01T02:34:25;18.77;;;9.13;;
18879;SDS011;9572;52.378;13.404;2023-03-01T02:36:55;19.87;;;10.03;;
18879;SDS011;9572;52.378;13.404;2023-03-01T02:39:27;20.73;;;9.70;;
18879;SDS011;9572;52.378;13.404;2023-03-01T02:41:57;19.10;;;10.43;;
18879;SDS011;9572;52.378;13.404;2023-03-01T02:44:25;18.23;;;9.83;;
18879;SDS011;9572;52.378;13.404;2023-03-01T02:46:54;17.63;;;10.47;;
18879;SDS011;9572;52.378;13.404;2023-03-01T02:49:24;17.07;;;9.43;;
18879;SDS011;9572;52.378;13.404;2023-03-01T02:52:01;20.03;;;9.87;;
18879;SDS011;9572;52.378;13.404;2023-03-01T02:54:40;17.27;;;9.50;;
18879;SDS011;9572;52.378;13.404;2023-03-01T02:57:13;20.33;;;10.10;;
18879;SDS011;9572;52.378;13.404;2023-03-01T02:59:40;18.57;;;10.37;;
18879;SDS011;9572;52.378;13.404;2023-03-01T03:02:19;24.30;;;10.77;;
18879;SDS011;9572;52.378;13.404;2023-03-01T03:05:00;23.67;;;10.57;;
18879;SDS011;9572;52.378;13.404;2023-03-01T03:07:31;20.17;;;10.40;;
18879;SDS011;9572;52.378;13.404;2023-03-01T03:09:59;18.83;;;9.40;;
18879;SDS011;9572;52.378;13.404;2023-03-01T03:12:26;19.67;;;10.37;;
18879;SDS011;9572;52.378;13.404;2023-03-01T03:14:53;20.20;;;9.70;;
18879;SDS011;9572;52.378;13.404;2023-03-01T03:17:21;18.20;;;9.37;;
18879;SDS011;9572;52.378;13.404;2023-03-01T03:19:48;19.33;;;9.90;;
18879;SDS011;9572;52.378;13.404;2023-03-01T03:22:15;19.30;;;9.93;;
18879;SDS011;9572;52.378;13.404;2023-03-01T03:24:42;22.37;;;10.63;;
18879;SDS011;9572;52.378;13.404;2023-03-01T03:27:09;22.37;;;11.10;;
18879;SDS011;9572;52.378;13.404;2023-03-01T03:29:36;19.07;;;9.80;;
18879;SDS011;9572;52.378;13.404;2023-03-01T03:32:03;21.60;;;10.70;;
18879;SDS011;9572;52.378;13.404;2023-03-01T03:34:31;19.53;;;10.30;;
18879;SDS011;9572;52.378;13.404;2023-03-01T03:36:58;16.57;;;9.23;;
18879;SDS011;9572;52.378;13.404;2023-03-01T03:39:25;21.33;;;11.07;;
18879;SDS011;9572;52.378;13.404;2023-03-01T03:41:53;21.60;;;11.17;;
18879;SDS011;9572;52.378;13.404;2023-03-01T03:44:21;20.70;;;11.33;;
18879;SDS011;9572;52.378;13.404;2023-03-01T03:46:48;20.50;;;10.40;;
18879;SDS011;9572;52.378;13.404;2023-03-01T03:49:14;21.43;;;11.60;;
18879;SDS011;9572;52.378;13.404;2023-03-01T03:51:44;23.57;;;10.90;;
18879;SDS011;9572;52.378;13.404;2023-03-01T03:54:11;21.10;;;11.30;;
18879;SDS011;9572;52.378;13.404;2023-03-01T03:56:38;21.13;;;11.33;;
18879;SDS011;9572;52.378;13.404;2023-03-01T03:59:05;25.33;;;11.80;;
18879;SDS011;9572;52.378;13.404;2023-03-01T04:01:32;25.30;;;12.70;;
18879;SDS011;9572;52.378;13.404;2023-03-01T04:03:59;22.03;;;11.87;;
18879;SDS011;9572;52.378;13.404;2023-03-01T04:06:29;23.87;;;12.20;;
18879;SDS011;9572;52.378;13.404;2023-03-01T04:08:57;26.80;;;11.23;;
18879;SDS011;9572;52.378;13.404;2023-03-01T04:11:28;18.83;;;10.07;;
18879;SDS011;9572;52.378;13.404;2023-03-01T04:13:55;19.37;;;10.20;;
18879;SDS011;9572;52.378;13.404;2023-03-01T04:16:23;22.27;;;11.23;;
18879;SDS011;9572;52.378;13.404;2023-03-01T04:18:51;18.90;;;10.43;;
18879;SDS011;9572;52.378;13.404;2023-03-01T04:21:19;18.40;;;10.50;;
18879;SDS011;9572;52.378;13.404;2023-03-01T04:23:46;22.03;;;10.70;;
18879;SDS011;9572;52.378;13.404;2023-03-01T04:26:14;18.27;;;10.03;;
18879;SDS011;9572;52.378;13.404;2023-03-01T04:28:41;19.93;;;10.47;;
18879;SDS011;9572;52.378;13.404;2023-03-01T04:31:11;23.63;;;10.70;;
18879;SDS011;9572;52.378;13.404;2023-03-01T04:33:40;18.13;;;10.17;;
18879;SDS011;9572;52.378;13.404;2023-03-01T04:36:09;20.60;;;9.87;;
18879;SDS011;9572;52.378;13.404;2023-03-01T04:38:36;20.57;;;10.30;;
18879;SDS011;9572;52.378;13.404;2023-03-01T04:41:04;20.07;;;10.17;;
18879;SDS011;9572;52.378;13.404;2023-03-01T04:43:32;19.20;;;9.97;;
18879;SDS011;9572;52.378;13.404;2023-03-01T04:46:00;24.83;;;11.80;;
18879;SDS011;9572;52.378;13.404;2023-03-01T04:48:28;21.20;;;10.03;;
18879;SDS011;9572;52.378;13.404;2023-03-01T04:50:55;20.20;;;10.33;;
18879;SDS011;9572;52.378;13.404;2023-03-01T04:53:22;20.90;;;11.23;;
18879;SDS011;9572;52.378;13.404;2023-03-01T04:55:49;23.63;;;11.27;;
18879;SDS011;9572;52.378;13.404;2023-03-01T04:58:16;21.33;;;11.43;;
18879;SDS011;9572;52.378;13.404;2023-03-01T05:00:45;23.87;;;11.60;;
18879;SDS011;9572;52.378;13.404;2023-03-01T05:03:12;22.67;;;10.83;;
18879;SDS011;9572;52.378;13.404;2023-03-01T05:05:44;22.23;;;10.90;;
18879;SDS011;9572;52.378;13.404;2023-03-01T05:08:12;21.57;;;10.50;;
18879;SDS011;9572;52.378;13.404;2023-03-01T05:10:43;19.13;;;10.07;;
18879;SDS011;9572;52.378;13.404;2023-03-01T05:13:12;21.53;;;10.13;;
18879;SDS011;9572;52.378;13.404;2023-03-01T05:15:40;19.20;;;10.73;;
18879;SDS011;9572;52.378;13.404;2023-03-01T05:18:08;24.67;;;11.40;;
18879;SDS011;9572;52.378;13.404;2023-03-01T05:20:36;21.90;;;11.13;;
18879;SDS011;9572;52.378;13.404;2023-03-01T05:23:04;22.97;;;11.17;;
18879;SDS011;9572;52.378;13.404;2023-03-01T05:25:31;25.07;;;11.57;;
18879;SDS011;9572;52.378;13.404;2023-03-01T05:27:59;19.80;;;10.87;;
18879;SDS011;9572;52.378;13.404;2023-03-01T05:30:29;21.87;;;11.77;;
18879;SDS011;9572;52.378;13.404;2023-03-01T05:32:56;21.23;;;11.00;;
18879;SDS011;9572;52.378;13.404;2023-03-01T05:35:24;21.00;;;10.67;;
18879;SDS011;9572;52.378;13.404;2023-03-01T05:37:51;22.50;;;10.50;;
18879;SDS011;9572;52.378;13.404;2023-03-01T05:40:19;20.80;;;11.10;;
18879;SDS011;9572;52.378;13.404;2023-03-01T05:42:48;23.07;;;11.20;;
18879;SDS011;9572;52.378;13.404;2023-03-01T05:45:17;22.10;;;10.90;;
18879;SDS011;9572;52.378;13.404;2023-03-01T05:47:45;20.97;;;10.73;;
18879;SDS011;9572;52.378;13.404;2023-03-01T05:50:13;25.70;;;11.97;;
18879;SDS011;9572;52.378;13.404;2023-03-01T05:52:45;20.67;;;10.73;;
18879;SDS011;9572;52.378;13.404;2023-03-01T05:55:13;23.70;;;12.10;;
18879;SDS011;9572;52.378;13.404;2023-03-01T05:57:41;21.17;;;11.30;;
18879;SDS011;9572;52.378;13.404;2023-03-01T06:00:08;23.93;;;12.00;;
18879;SDS011;9572;52.378;13.404;2023-03-01T06:02:36;24.33;;;12.60;;
18879;SDS011;9572;52.378;13.404;2023-03-01T06:05:04;23.17;;;12.43;;
18879;SDS011;9572;52.378;13.404;2023-03-01T06:07:31;24.60;;;11.83;;
18879;SDS011;9572;52.378;13.404;2023-03-01T06:09:59;20.93;;;12.03;;
18879;SDS011;9572;52.378;13.404;2023-03-01T06:12:29;22.87;;;11.07;;
18879;SDS011;9572;52.378;13.404;2023-03-01T06:14:57;23.63;;;12.10;;
18879;SDS011;9572;52.378;13.404;2023-03-01T06:17:23;24.60;;;11.77;;
18879;SDS011;9572;52.378;13.404;2023-03-01T06:19:50;19.20;;;10.47;;
18879;SDS011;9572;52.378;13.404;2023-03-01T06:22:17;21.90;;;11.97;;
18879;SDS011;9572;52.378;13.404;2023-03-01T06:24:44;21.47;;;11.77;;
18879;SDS011;9572;52.378;13.404;2023-03-01T06:27:12;21.87;;;11.33;;
18879;SDS011;9572;52.378;13.404;2023-03-01T06:29:39;21.97;;;11.87;;
18879;SDS011;9572;52.378;13.404;2023-03-01T06:32:06;21.70;;;12.03;;
18879;SDS011;9572;52.378;13.404;2023-03-01T06:34:33;21.07;;;11.13;;
18879;SDS011;9572;52.378;13.404;2023-03-01T06:37:00;24.33;;;12.23;;
18879;SDS011;9572;52.378;13.404;2023-03-01T06:39:30;27.50;;;11.37;;
18879;SDS011;9572;52.378;13.404;2023-03-01T06:41:57;24.80;;;11.77;;
18879;SDS011;9572;52.378;13.404;2023-03-01T06:44:25;22.63;;;11.37;;
18879;SDS011;9572;52.378;13.404;2023-03-01T06:46:52;20.87;;;10.87;;
18879;SDS011;9572;52.378;13.404;2023-03-01T06:49:19;21.87;;;11.53;;
18879;SDS011;9572;52.378;13.404;2023-03-01T06:51:46;25.03;;;11.40;;
18879;SDS011;9572;52.378;13.404;2023-03-01T06:54:13;23.33;;;11.97;;
18879;SDS011;9572;52.378;13.404;2023-03-01T06:56:40;23.63;;;12.33;;
18879;SDS011;9572;52.378;13.404;2023-03-01T06:59:07;26.30;;;12.93;;
18879;SDS011;9572;52.378;13.404;2023-03-01T07:01:35;29.63;;;13.30;;
18879;SDS011;9572;52.378;13.404;2023-03-01T07:04:02;28.80;;;13.20;;
18879;SDS011;9572;52.378;13.404;2023-03-01T07:06:29;23.47;;;12.57;;
18879;SDS011;9572;52.378;13.404;2023-03-01T07:08:56;30.60;;;12.83;;
18879;SDS011;9572;52.378;13.404;2023-03-01T07:11:22;24.53;;;13.10;;
18879;SDS011;9572;52.378;13.404;2023-03-01T07:13:49;28.07;;;13.90;;
18879;SDS011;9572;52.378;13.404;2023-03-01T07:16:16;31.30;;;13.23;;
18879;SDS011;9572;52.378;13.404;2023-03-01T07:18:46;22.83;;;12.80;;
18879;SDS011;9572;52.378;13.404;2023-03-01T07:21:14;22.00;;;12.70;;
18879;SDS011;9572;52.378;13.404;2023-03-01T07:23:41;23.57;;;12.80;;
18879;SDS011;9572;52.378;13.404;2023-03-01T07:26:08;26.83;;;12.33;;
18879;SDS011;9572;52.378;13.404;2023-03-01T07:28:35;23.37;;;12.30;;
18879;SDS011;9572;52.378;13.404;2023-03-01T07:31:04;20.10;;;12.30;;
18879;SDS011;9572;52.378;13.404;2023-03-01T07:33:32;27.80;;;14.63;;
18879;SDS011;9572;52.378;13.404;2023-03-01T07:36:01;26.10;;;12.93;;
18879;SDS011;9572;52.378;13.404;2023-03-01T07:38:29;23.73;;;12.33;;
18879;SDS011;9572;52.378;13.404;2023-03-01T07:40:57;21.33;;;11.77;;
18879;SDS011;9572;52.378;13.404;2023-03-01T07:43:25;22.77;;;12.30;;
18879;SDS011;9572;52.378;13.404;2023-03-01T07:45:52;20.73;;;12.03;;
18879;SDS011;9572;52.378;13.404;2023-03-01T07:48:19;21.13;;;12.80;;
18879;SDS011;9572;52.378;13.404;2023-03-01T07:50:46;26.80;;;13.53;;
18879;SDS011;9572;52.378;13.404;2023-03-01T07:53:14;21.93;;;12.60;;
18879;SDS011;9572;52.378;13.404;2023-03-01T07:55:41;23.13;;;12.83;;
18879;SDS011;9572;52.378;13.404;2023-03-01T07:58:08;23.23;;;13.27;;
18879;SDS011;9572;52.378;13.404;2023-03-01T08:00:35;22.53;;;11.70;;
18879;SDS011;9572;52.378;13.404;2023-03-01T08:03:02;21.60;;;12.03;;
18879;SDS011;9572;52.378;13.404;2023-03-01T08:05:29;24.97;;;11.87;;
18879;SDS011;9572;52.378;13.404;2023-03-01T08:07:56;20.53;;;10.97;;
18879;SDS011;9572;52.378;13.404;2023-03-01T08:10:24;17.33;;;9.50;;
18879;SDS011;9572;52.378;13.404;2023-03-01T08:12:51;23.30;;;11.03;;
18879;SDS011;9572;52.378;13.404;2023-03-01T08:15:19;17.40;;;10.33;;
18879;SDS011;9572;52.378;13.404;2023-03-01T08:17:46;20.10;;;10.43;;
18879;SDS011;9572;52.378;13.404;2023-03-01T08:20:15;19.57;;;10.63;;
18879;SDS011;9572;52.378;13.404;2023-03-01T08:22:42;19.20;;;10.77;;
18879;SDS011;9572;52.378;13.404;2023-03-01T08:25:09;17.60;;;10.47;;
18879;SDS011;9572;52.378;13.404;2023-03-01T08:27:37;22.70;;;11.10;;
18879;SDS011;9572;52.378;13.404;2023-03-01T08:30:05;17.63;;;10.77;;
18879;SDS011;9572;52.378;13.404;2023-03-01T08:32:35;18.33;;;11.17;;
18879;SDS011;9572;52.378;13.404;2023-03-01T08:35:03;19.53;;;11.27;;
18879;SDS011;9572;52.378;13.404;2023-03-01T08:37:30;21.47;;;12.63;;
18879;SDS011;9572;52.378;13.404;2023-03-01T08:39:58;24.10;;;11.83;;
18879;SDS011;9572;52.378;13.404;2023-03-01T08:42:25;20.87;;;10.90;;
18879;SDS011;9572;52.378;13.404;2023-03-01T08:44:53;21.13;;;10.53;;
18879;SDS011;9572;52.378;13.404;2023-03-01T08:47:21;25.20;;;9.43;;
18879;SDS011;9572;52.378;13.404;2023-03-01T08:49:49;16.13;;;9.00;;
18879;SDS011;9572;52.378;13.404;2023-03-01T08:52:16;16.47;;;9.53;;
18879;SDS011;9572;52.378;13.404;2023-03-01T08:54:43;16.10;;;9.30;;
18879;SDS011;9572;52.378;13.404;2023-03-01T08:57:10;20.00;;;10.10;;
18879;SDS011;9572;52.378;13.404;2023-03-01T08:59:37;15.87;;;9.00;;
18879;SDS011;9572;52.378;13.404;2023-03-01T09:02:10;20.77;;;8.80;;
18879;SDS011;9572;52.378;13.404;2023-03-01T09:04:38;14.27;;;7.57;;
18879;SDS011;9572;52.378;13.404;2023-03-01T09:07:06;15.73;;;7.93;;
18879;SDS011;9572;52.378;13.404;2023-03-01T09:09:33;16.17;;;7.97;;
18879;SDS011;9572;52.378;13.404;2023-03-01T09:12:00;15.93;;;7.13;;
18879;SDS011;9572;52.378;13.404;2023-03-01T09:14:27;15.37;;;6.87;;
18879;SDS011;9572;52.378;13.404;2023-03-01T09:16:54;13.10;;;7.33;;
18879;SDS011;9572;52.378;13.404;2023-03-01T09:19:22;13.97;;;7.77;;
18879;SDS011;9572;52.378;13.404;2023-03-01T09:21:49;13.00;;;6.60;;
18879;SDS011;9572;52.378;13.404;2023-03-01T09:24:18;12.00;;;6.93;;
18879;SDS011;9572;52.378;13.404;2023-03-01T09:26:46;15.20;;;8.10;;
18879;SDS011;9572;52.378;13.404;2023-03-01T09:29:14;12.87;;;7.43;;
18879;SDS011;9572;52.378;13.404;2023-03-01T09:31:41;12.00;;;7.23;;
18879;SDS011;9572;52.378;13.404;2023-03-01T09:34:08;11.13;;;6.23;;
18879;SDS011;9572;52.378;13.404;2023-03-01T09:36:37;15.20;;;6.97;;
18879;SDS011;9572;52.378;13.404;2023-03-01T09:39:04;20.73;;;7.27;;
18879;SDS011;9572;52.378;13.404;2023-03-01T09:44:18;9.47;;;6.13;;
18879;SDS011;9572;52.378;13.404;2023-03-01T09:46:55;10.53;;;6.17;;
18879;SDS011;9572;52.378;13.404;2023-03-01T09:49:23;12.23;;;7.30;;
18879;SDS011;9572;52.378;13.404;2023-03-01T09:51:57;18.00;;;6.90;;
18879;SDS011;9572;52.378;13.404;2023-03-01T09:54:27;11.43;;;6.27;;
18879;SDS011;9572;52.378;13.404;2023-03-01T09:57:00;12.07;;;6.33;;
18879;SDS011;9572;52.378;13.404;2023-03-01T09:59:33;11.30;;;5.80;;
18879;SDS011;9572;52.378;13.404;2023-03-01T10:02:12;9.40;;;5.67;;
18879;SDS011;9572;52.378;13.404;2023-03-01T10:04:50;12.93;;;5.67;;
18879;SDS011;9572;52.378;13.404;2023-03-01T10:07:27;13.77;;;5.50;;
18879;SDS011;9572;52.378;13.404;2023-03-01T10:09:59;10.37;;;5.70;;
18879;SDS011;9572;52.378;13.404;2023-03-01T10:12:31;9.47;;;5.47;;
18879;SDS011;9572;52.378;13.404;2023-03-01T10:15:04;10.40;;;5.20;;
18879;SDS011;9572;52.378;13.404;2023-03-01T10:17:38;8.60;;;5.10;;
18879;SDS011;9572;52.378;13.404;2023-03-01T10:20:16;9.13;;;4.80;;
18879;SDS011;9572;52.378;13.404;2023-03-01T10:22:47;6.67;;;4.40;;
18879;SDS011;9572;52.378;13.404;2023-03-01T10:25:20;8.90;;;5.10;;
18879;SDS011;9572;52.378;13.404;2023-03-01T10:28:00;9.13;;;5.10;;
18879;SDS011;9572;52.378;13.404;2023-03-01T10:30:32;11.43;;;5.43;;
18879;SDS011;9572;52.378;13.404;2023-03-01T10:33:03;8.20;;;5.13;;
18879;SDS011;9572;52.378;13.404;2023-03-01T10:35:41;11.70;;;5.30;;
18879;SDS011;9572;52.378;13.404;2023-03-01T10:38:10;13.20;;;6.03;;
18879;SDS011;9572;52.378;13.404;2023-03-01T10:40:49;15.17;;;6.70;;
18879;SDS011;9572;52.378;13.404;2023-03-01T10:43:17;13.63;;;5.90;;
18879;SDS011;9572;52.378;13.404;2023-03-01T10:45:45;17.27;;;6.60;;
18879;SDS011;9572;52.378;13.404;2023-03-01T10:48:13;14.83;;;6.80;;
18879;SDS011;9572;52.378;13.404;2023-03-01T10:50:41;11.93;;;6.57;;
18879;SDS011;9572;52.378;13.404;2023-03-01T10:53:19;12.10;;;6.23;;
18879;SDS011;9572;52.378;13.404;2023-03-01T10:55:56;13.23;;;6.80;;
18879;SDS011;9572;52.378;13.404;2023-03-01T10:58:29;14.10;;;6.77;;
18879;SDS011;9572;52.378;13.404;2023-03-01T11:00:57;12.97;;;7.33;;
18879;SDS011;9572;52.378;13.404;2023-03-01T11:03:26;14.27;;;7.33;;
18879;SDS011;9572;52.378;13.404;2023-03-01T11:05:57;14.47;;;7.30;;
18879;SDS011;9572;52.378;13.404;2023-03-01T11:08:31;16.67;;;7.43;;
18879;SDS011;9572;52.378;13.404;2023-03-01T11:11:07;12.97;;;7.63;;
18879;SDS011;9572;52.378;13.404;2023-03-01T11:13:50;13.23;;;6.57;;
18879;SDS011;9572;52.378;13.404;2023-03-01T11:16:22;14.30;;;7.53;;
18879;SDS011;9572;52.378;13.404;2023-03-01T11:19:00;16.93;;;7.17;;
18879;SDS011;9572;52.378;13.404;2023-03-01T11:21:47;12.70;;;6.70;;
18879;SDS011;9572;52.378;13.404;2023-03-01T11:24:22;13.17;;;7.80;;
18879;SDS011;9572;52.378;13.404;2023-03-01T11:26:54;13.03;;;7.07;;
18879;SDS011;9572;52.378;13.404;2023-03-01T11:29:25;12.63;;;7.93;;
18879;SDS011;9572;52.378;13.404;2023-03-01T11:31:57;17.57;;;7.30;;
18879;SDS011;9572;52.378;13.404;2023-03-01T11:34:33;15.20;;;8.37;;
18879;SDS011;9572;52.378;13.404;2023-03-01T11:37:10;13.03;;;6.90;;
18879;SDS011;9572;52.378;13.404;2023-03-01T11:39:46;14.47;;;7.40;;
18879;SDS011;9572;52.378;13.404;2023-03-01T11:42:19;23.50;;;9.23;;
18879;SDS011;9572;52.378;13.404;2023-03-01T11:44:50;15.13;;;6.80;;
18879;SDS011;9572;52.378;13.404;2023-03-01T11:47:27;18.20;;;7.13;;
18879;SDS011;9572;52.378;13.404;2023-03-01T11:50:10;17.67;;;7.30;;
18879;SDS011;9572;52.378;13.404;2023-03-01T11:52:45;14.93;;;7.10;;
18879;SDS011;9572;52.378;13.404;2023-03-01T11:55:25;14.63;;;7.73;;
18879;SDS011;9572;52.378;13.404;2023-03-01T11:58:14;14.23;;;7.00;;
18879;SDS011;9572;52.378;13.404;2023-03-01T12:03:51;12.43;;;7.03;;
18879;SDS011;9572;52.378;13.404;2023-03-01T12:06:34;16.67;;;7.00;;
18879;SDS011;9572;52.378;13.404;2023-03-01T12:09:16;16.00;;;6.87;;
18879;SDS011;9572;52.378;13.404;2023-03-01T12:12:07;12.07;;;6.20;;
18879;SDS011;9572;52.378;13.404;2023-03-01T12:17:56;14.40;;;6.70;;
18879;SDS011;9572;52.378;13.404;2023-03-01T12:20:36;10.47;;;5.23;;
18879;SDS011;9572;52.378;13.404;2023-03-01T12:23:16;11.17;;;5.90;;
18879;SDS011;9572;52.378;13.404;2023-03-01T12:25:57;16.73;;;5.40;;
18879;SDS011;9572;52.378;13.404;2023-03-01T12:28:33;10.83;;;5.30;;
18879;SDS011;9572;52.378;13.404;2023-03-01T12:31:16;12.77;;;5.33;;
18879;SDS011;9572;52.378;13.404;2023-03-01T12:34:05;9.23;;;4.77;;
18879;SDS011;9572;52.378;13.404;2023-03-01T12:36:49;8.47;;;4.53;;
18879;SDS011;9572;52.378;13.404;2023-03-01T12:39:33;7.70;;;4.50;;
18879;SDS011;9572;52.378;13.404;2023-03-01T12:42:14;10.03;;;5.20;;
18879;SDS011;9572;52.378;13.404;2023-03-01T12:44:52;10.37;;;4.93;;
18879;SDS011;9572;52.378;13.404;2023-03-01T12:50:23;7.37;;;4.30;;
18879;SDS011;9572;52.378;13.404;2023-03-01T12:52:52;12.47;;;3.80;;
18879;SDS011;9572;52.378;13.404;2023-03-01T12:55:24;10.70;;;4.97;;
18879;SDS011;9572;52.378;13.404;2023-03-01T12:57:57;7.97;;;4.40;;
18879;SDS011;9572;52.378;13.404;2023-03-01T13:00:38;10.27;;;5.23;;
18879;SDS011;9572;52.378;13.404;2023-03-01T13:03:14;9.33;;;4.83;;
18879;SDS011;9572;52.378;13.404;2023-03-01T13:05:56;8.30;;;3.60;;
18879;SDS011;9572;52.378;13.404;2023-03-01T13:08:31;7.03;;;4.00;;
18879;SDS011;9572;52.378;13.404;2023-03-01T13:11:05;5.30;;;3.83;;
18879;SDS011;9572;52.378;13.404;2023-03-01T13:13:41;11.80;;;4.30;;
18879;SDS011;9572;52.378;13.404;2023-03-01T13:16:26;11.07;;;4.70;;
18879;SDS011;9572;52.378;13.404;2023-03-01T13:19:08;10.80;;;4.10;;
18879;SDS011;9572;52.378;13.404;2023-03-01T13:21:40;6.60;;;3.60;;
18879;SDS011;9572;52.378;13.404;2023-03-01T13:27:09;9.97;;;5.20;;
18879;SDS011;9572;52.378;13.404;2023-03-01T13:29:43;8.27;;;5.30;;
18879;SDS011;9572;52.378;13.404;2023-03-01T13:32:23;7.10;;;3.90;;
18879;SDS011;9572;52.378;13.404;2023-03-01T13:34:56;7.47;;;4.03;;
18879;SDS011;9572;52.378;13.404;2023-03-01T13:37:25;9.10;;;3.93;;
18879;SDS011;9572;52.378;13.404;2023-03-01T13:39:56;10.03;;;4.23;;
18879;SDS011;9572;52.378;13.404;2023-03-01T13:42:31;9.23;;;3.80;;
18879;SDS011;9572;52.378;13.404;2023-03-01T13:48:04;8.77;;;3.60;;
18879;SDS011;9572;52.378;13.404;2023-03-01T13:50:38;5.47;;;3.10;;
18879;SDS011;9572;52.378;13.404;2023-03-01T13:53:14;5.47;;;3.20;;
18879;SDS011;9572;52.378;13.404;2023-03-01T13:55:44;5.40;;;3.13;;
18879;SDS011;9572;52.378;13.404;2023-03-01T13:58:19;5.80;;;3.23;;
18879;SDS011;9572;52.378;13.404;2023-03-01T14:00:55;6.87;;;3.00;;
18879;SDS011;9572;52.378;13.404;2023-03-01T14:03:24;5.10;;;3.23;;
18879;SDS011;9572;52.378;13.404;2023-03-01T14:05:59;6.43;;;3.00;;
18879;SDS011;9572;52.378;13.404;2023-03-01T14:08:28;6.40;;;2.60;;
18879;SDS011;9572;52.378;13.404;2023-03-01T14:11:03;4.83;;;2.77;;
18879;SDS011;9572;52.378;13.404;2023-03-01T14:14:09;4.83;;;2.37;;
18879;SDS011;9572;52.378;13.404;2023-03-01T14:16:48;4.40;;;2.37;;
18879;SDS011;9572;52.378;13.404;2023-03-01T14:19:26;6.43;;;2.00;;
18879;SDS011;9572;52.378;13.404;2023-03-01T14:22:02;4.47;;;2.60;;
18879;SDS011;9572;52.378;13.404;2023-03-01T14:24:40;5.57;;;2.10;;
18879;SDS011;9572;52.378;13.404;2023-03-01T14:27:14;6.20;;;2.00;;
18879;SDS011;9572;52.378;13.404;2023-03-01T14:29:41;3.53;;;2.57;;
18879;SDS011;9572;52.378;13.404;2023-03-01T14:32:12;3.60;;;1.87;;
18879;SDS011;9572;52.378;13.404;2023-03-01T14:34:46;3.90;;;2.10;;
18879;SDS011;9572;52.378;13.404;2023-03-01T14:37:19;9.97;;;2.60;;
18879;SDS011;9572;52.378;13.404;2023-03-01T14:39:48;4.57;;;2.30;;
18879;SDS011;9572;52.378;13.404;2023-03-01T14:42:16;4.73;;;2.40;;
18879;SDS011;9572;52.378;13.404;2023-03-01T14:44:45;6.73;;;2.40;;
18879;SDS011;9572;52.378;13.404;2023-03-01T14:47:14;6.53;;;2.40;;
18879;SDS011;9572;52.378;13.404;2023-03-01T14:49:49;6.87;;;2.90;;
18879;SDS011;9572;52.378;13.404;2023-03-01T14:52:22;3.23;;;2.23;;
18879;SDS011;9572;52.378;13.404;2023-03-01T14:54:53;4.27;;;2.50;;
18879;SDS011;9572;52.378;13.404;2023-03-01T14:57:21;5.13;;;2.47;;
18879;SDS011;9572;52.378;13.404;2023-03-01T14:59:50;9.10;;;2.37;;
18879;SDS011;9572;52.378;13.404;2023-03-01T15:02:20;3.23;;;2.40;;
18879;SDS011;9572;52.378;13.404;2023-03-01T15:04:51;4.60;;;2.00;;